Latest Weather Observations for White Cliffs AWS

IDN60801

Issued at 8:02 pm EDT Saturday 6 February 2016 (issued every 30 minutes, with the page automatically refreshed every 10 minutes)

About weather observations | Map of weather stations | Latest weather observations for NSW | Other Formats
Station Details ID: 046129 Name: WHITE CLIFFS AWS Lat: -30.85 Lon: 143.07 Height: 158.0 m
Data from the previous 72 hours. | See also: Recent months at White Cliffs AWS
Date/Time
EDT
Temp
°C
App
Temp
°C
Dew
Point
Rel
Hum
%
Delta-T
°C
Wind Press
QNH
hPa
Press
MSL
hPa
Rain
since 9 am
mm
Dir
 
Spd
km/h
Gust
km/h
Spd
kts
Gust
kts
06/08:00pm 32.7 30.0 13.4 31 11.7 E 20 30 11 16 1009.9 1008.8 0.0
06/07:30pm 34.1 31.4 7.2 19 15.0 SSE 11 32 6 17 1009.2 1008.2 0.0
06/07:00pm 34.2 31.1 7.3 19 15.0 SE 13 20 7 11 1008.9 1007.9 0.0
06/06:30pm 34.4 31.0 7.5 19 15.0 E 15 24 8 13 1008.8 1007.8 0.0
06/06:00pm 34.2 31.3 8.0 20 14.8 ESE 13 24 7 13 1008.8 1007.8 0.0
06/05:30pm 34.8 31.2 8.5 20 14.9 S 17 30 9 16 1008.8 1007.8 0.0
06/05:00pm 34.8 29.9 8.5 20 15.0 SSE 24 32 13 17 1008.8 1007.8 0.0
06/04:30pm 34.0 30.3 9.3 22 14.2 SE 19 30 10 16 1009.2 1008.2 0.0
06/04:00pm 34.8 31.8 10.6 23 14.2 SE 17 28 9 15 1009.4 1008.4 0.0
06/03:30pm 33.3 30.3 10.6 25 13.2 SE 17 28 9 15 1010.0 1008.9 0.0
06/03:00pm 33.0 30.6 11.5 27 12.7 E 15 30 8 16 1010.4 1009.3 0.0
06/02:30pm 32.5 30.0 12.2 29 12.1 ESE 17 30 9 16 1010.7 1009.6 0.0
06/02:00pm 33.0 30.6 12.6 29 12.3 E 17 28 9 15 1011.0 1009.9 0.0
06/01:30pm 32.1 29.9 13.3 31 11.4 ESE 17 26 9 14 1011.4 1010.4 0.0
06/01:00pm 31.9 29.3 13.2 32 11.3 ESE 19 28 10 15 1011.9 1010.9 0.0
06/12:30pm 30.9 28.7 13.2 34 10.6 E 17 28 9 15 1012.2 1011.2 0.0
06/12:00pm 30.0 27.7 12.9 35 10.2 E 17 26 9 14 1012.5 1011.5 0.0
06/11:30am 29.9 27.8 13.6 36 9.8 E 17 24 9 13 1012.6 1011.6 0.0
06/11:00am 29.8 26.7 13.5 36 9.8 E 22 32 12 17 1012.8 1011.8 0.0
06/10:30am 27.6 24.8 13.2 41 8.5 E 20 32 11 17 1013.1 1012.1 0.0
06/10:00am 27.5 23.5 13.1 41 8.5 E 26 39 14 21 1012.8 1011.8 0.0
06/09:30am 27.0 22.6 13.0 42 8.3 E 28 41 15 22 1012.6 1011.6 0.0
06/09:00am 26.3 21.6 13.1 44 7.8 E 30 43 16 23 1012.2 1011.2 0.0
06/08:30am 25.6 20.4 12.8 45 7.5 E 32 43 17 23 1012.1 1011.1 0.0
06/08:00am 25.5 21.5 13.0 46 7.3 E 26 33 14 18 1011.8 1010.8 0.0
06/07:30am 24.4 20.7 10.3 41 7.8 ESE 20 26 11 14 1011.3 1010.3 0.0
06/07:00am 23.8 19.8 8.2 37 8.3 ESE 19 24 10 13 1010.8 1009.7 0.0
06/06:30am 24.2 19.9 7.8 35 8.7 ESE 20 26 11 14 1010.2 1009.1 0.0
06/06:00am 24.6 20.4 8.1 35 8.9 ESE 20 24 11 13 1009.7 1008.7 0.0
06/05:30am 24.6 20.5 6.4 31 9.5 ESE 17 20 9 11 1009.5 1008.5 0.0
06/05:00am 24.9 20.3 5.7 29 9.9 ESE 19 24 10 13 1009.3 1008.3 0.0
06/04:30am 25.6 21.0 5.8 28 10.2 ESE 19 24 10 13 1009.4 1008.4 0.0
06/04:00am 25.8 21.5 5.4 27 10.5 ESE 17 20 9 11 1009.4 1008.4 0.0
06/03:30am 26.5 21.7 5.5 26 10.9 SE 20 26 11 14 1009.5 1008.5 0.0
06/03:00am 26.6 21.7 5.0 25 11.1 SE 20 26 11 14 1009.6 1008.6 0.0
06/02:30am 27.1 22.3 4.8 24 11.4 SE 19 24 10 13 1009.7 1008.7 0.0
06/02:00am 27.5 22.8 5.1 24 11.6 ESE 19 24 10 13 1009.9 1008.8 0.0
06/01:30am 28.1 22.4 5.0 23 12.0 SE 24 30 13 16 1010.0 1008.9 0.0
06/01:00am 28.6 22.9 4.8 22 12.3 SE 24 32 13 17 1010.1 1009.0 0.0
06/12:30am 29.0 23.2 4.5 21 12.7 SE 24 33 13 18 1010.1 1009.0 0.0
06/12:00am 29.5 23.8 4.9 21 12.8 SE 24 33 13 18 1010.1 1009.0 0.0
 
Date/Time
EDT
Temp
°C
App
Temp
°C
Dew
Point
Rel
Hum
%
Delta-T
°C
Wind Press
QNH
hPa
Press
MSL
hPa
Rain
since 9 am
mm
Dir
 
Spd
km/h
Gust
km/h
Spd
kts
Gust
kts
05/11:30pm 30.0 24.8 5.3 21 13.0 SSE 22 28 12 15 1010.1 1009.0 0.0
05/11:00pm 30.5 25.9 6.4 22 13.0 SE 20 24 11 13 1010.1 1009.0 0.0
05/10:30pm 30.5 26.6 7.0 23 12.8 SE 17 20 9 11 1009.9 1008.8 0.0
05/10:00pm 30.9 27.2 8.0 24 12.7 SE 17 20 9 11 1009.5 1008.5 0.0
05/09:30pm 31.4 27.4 8.4 24 12.8 SE 19 26 10 14 1009.3 1008.3 0.0
05/09:00pm 32.0 27.4 8.3 23 13.3 SE 22 26 12 14 1009.0 1008.0 0.0
05/08:30pm 32.4 26.5 7.3 21 13.8 SE 28 33 15 18 1008.6 1007.6 0.0
05/08:00pm 32.9 27.8 7.7 21 14.0 ESE 24 33 13 18 1008.2 1007.2 0.0
05/07:30pm 34.0 28.7 8.6 21 14.4 SE 26 39 14 21 1007.9 1006.9 0.0
05/07:00pm 33.8 28.5 8.4 21 14.4 ESE 26 41 14 22 1007.7 1006.7 0.0
05/06:30pm 34.0 28.7 9.9 23 13.9 SE 28 39 15 21 1007.5 1006.5 0.0
05/06:00pm 34.0 29.1 9.9 23 14.0 ESE 26 37 14 20 1007.5 1006.5 0.0
05/05:30pm 34.5 31.0 11.0 24 13.9 SSE 20 32 11 17 1007.4 1006.4 0.0
05/05:00pm 34.2 29.9 10.7 24 13.8 SE 24 43 13 23 1007.9 1006.9 0.0
05/04:30pm 34.4 31.1 12.7 27 13.1 ESE 22 35 12 19 1008.2 1007.2 0.0
05/04:00pm 33.8 29.9 13.3 29 12.5 ESE 26 43 14 23 1008.6 1007.6 0.0
05/03:30pm 33.5 29.5 13.0 29 12.4 SE 26 37 14 20 1009.0 1008.0 0.0
05/03:00pm 33.6 30.3 14.1 30 12.0 SE 24 39 13 21 1009.3 1008.3 0.0
05/02:30pm 33.2 30.4 14.3 32 11.6 SE 22 39 12 21 1009.6 1008.6 0.0
05/02:00pm 32.1 28.7 13.8 33 11.2 ESE 24 37 13 20 1010.2 1009.1 0.0
05/01:30pm 31.7 29.1 13.9 34 10.8 ESE 20 37 11 20 1010.6 1009.5 0.0
05/01:00pm 30.7 27.5 13.0 33 10.6 ESE 22 39 12 21 1011.1 1010.1 0.0
05/12:30pm 31.1 27.7 13.8 34 10.5 ESE 24 37 13 20 1011.4 1010.4 0.0
05/12:00pm 30.4 27.5 14.1 37 9.9 ESE 22 35 12 19 1011.7 1010.7 0.0
05/11:30am 28.6 25.1 13.3 39 9.1 ESE 24 37 13 20 1011.9 1010.9 0.0
05/11:00am 28.7 25.2 13.4 39 9.1 ESE 24 39 13 21 1011.9 1010.9 0.0
05/10:30am 28.0 23.7 13.1 39 8.8 ESE 28 37 15 20 1011.8 1010.8 0.0
05/10:00am 27.2 22.5 13.2 42 8.3 ESE 30 39 16 21 1011.7 1010.7 0.0
05/09:30am 26.7 22.4 13.1 43 8.0 ESE 28 39 15 21 1011.5 1010.5 0.0
05/09:00am 25.8 21.4 13.0 45 7.5 ESE 28 39 15 21 1011.4 1010.4 0.0
05/08:30am 25.6 20.9 13.1 46 7.3 ESE 30 41 16 22 1011.2 1010.2 0.0
05/08:00am 25.3 21.0 13.2 47 7.1 ESE 28 41 15 22 1010.9 1009.8 0.0
05/07:30am 25.1 21.7 13.6 49 6.8 ESE 24 39 13 21 1010.4 1009.3 0.0
05/07:00am 25.3 22.0 14.1 50 6.7 SE 24 33 13 18 1010.0 1008.9 0.0
05/06:30am 25.8 23.2 14.9 51 6.6 SE 22 30 12 16 1009.5 1008.5 0.0
05/06:00am 26.0 24.2 14.5 49 6.9 ESE 17 24 9 13 1009.3 1008.3 0.0
05/05:30am 26.7 23.7 14.8 48 7.2 ESE 24 33 13 18 1008.9 1007.9 0.0
05/05:00am 26.9 23.9 13.6 44 7.9 SE 22 30 12 16 1008.6 1007.6 0.0
05/04:30am 27.3 23.1 12.5 40 8.7 SE 26 33 14 18 1008.4 1007.4 0.0
05/04:00am 27.6 22.7 12.4 39 8.9 SE 30 37 16 20 1008.3 1007.3 0.0
05/03:30am 27.1 22.3 11.6 38 8.9 SSE 28 35 15 19 1008.3 1007.3 0.0
05/03:00am 27.0 21.2 10.7 36 9.3 SSE 32 41 17 22 1008.1 1007.1 0.0
05/02:30am 27.1 20.6 10.3 35 9.5 SSE 35 41 19 22 1008.1 1007.1 0.0
05/02:00am 27.2 21.1 10.4 35 9.5 S 33 43 18 23 1008.4 1007.4 0.0
05/01:30am 27.2 21.7 10.4 35 9.5 S 30 39 16 21 1008.8 1007.8 0.0
05/01:00am 27.6 21.7 10.3 34 9.8 S 32 39 17 21 1008.8 1007.8 0.0
05/12:30am 28.0 22.2 10.7 34 9.9 S 32 43 17 23 1009.0 1008.0 0.0
05/12:00am 28.5 22.2 11.1 34 10.0 S 35 46 19 25 1009.2 1008.2 0.0
 
Date/Time
EDT
Temp
°C
App
Temp
°C
Dew
Point
Rel
Hum
%
Delta-T
°C
Wind Press
QNH
hPa
Press
MSL
hPa
Rain
since 9 am
mm
Dir
 
Spd
km/h
Gust
km/h
Spd
kts
Gust
kts
04/11:30pm 28.9 23.2 11.0 33 10.3 S 32 46 17 25 1009.1 1008.1 0.0
04/11:00pm 29.4 24.7 11.9 34 10.3 S 28 39 15 21 1009.1 1008.1 0.0
04/10:30pm 29.6 25.2 11.6 33 10.5 S 26 35 14 19 1009.2 1008.2 0.0
04/10:00pm 30.1 25.6 12.5 34 10.4 SSE 28 37 15 20 1009.0 1008.0 0.0
04/09:30pm 29.9 25.3 12.3 33 10.4 SSE 28 33 15 18 1008.7 1007.7 0.0
04/09:00pm 30.1 25.6 12.5 34 10.4 SSE 28 37 15 20 1008.4 1007.4 0.0
04/08:30pm 30.3 25.1 12.7 34 10.5 SSE 32 43 17 23 1008.2 1007.2 0.0
04/08:00pm 30.5 24.6 12.4 33 10.7 SSE 35 46 19 25 1007.9 1006.9 0.0
04/07:30pm 31.0 25.7 12.4 32 11.0 SSE 32 44 17 24 1007.7 1006.7 0.0
04/07:00pm 31.4 26.2 12.7 32 11.2 SSE 32 41 17 22 1007.7 1006.7 0.0
04/06:30pm 31.6 25.9 12.9 32 11.2 SSE 35 46 19 25 1007.7 1006.7 0.0
04/06:17pm 31.8 26.1 13.1 32 11.3 SSE 35 54 19 29 1007.7 1006.7 0.0
04/06:00pm 31.1 25.2 12.5 32 11.1 SSE 35 50 19 27 1007.8 1006.8 0.0
04/05:55pm 31.8 26.7 13.1 32 11.3 SSE 32 50 17 27 1007.6 1006.6 0.0
04/05:30pm 30.8 24.8 12.2 32 11.0 SSE 35 50 19 27 1007.9 1006.9 0.0
04/05:11pm 31.2 25.2 12.1 31 11.3 SSE 35 54 19 29 1007.9 1006.9 0.0
04/05:00pm 30.9 25.4 12.3 32 11.0 SSE 33 46 18 25 1008.1 1007.1 0.0
04/04:45pm 31.6 25.7 12.4 31 11.4 SSE 35 54 19 29 1008.2 1007.2 0.0
04/04:30pm 30.5 24.8 11.9 31 10.9 S 33 50 18 27 1008.4 1007.4 0.0
04/04:00pm 30.3 24.0 12.2 33 10.7 S 37 56 20 30 1008.8 1007.8 0.0
04/03:30pm 29.6 24.2 12.1 34 10.3 SSE 32 52 17 28 1009.1 1008.1 0.0
04/03:24pm 29.9 24.9 12.3 33 10.4 SSE 30 52 16 28 1009.2 1008.2 0.0
04/03:00pm 29.1 23.5 11.6 33 10.2 S 32 43 17 23 1009.7 1008.7 0.0
04/02:30pm 29.5 23.2 12.4 35 10.1 S 37 50 20 27 1010.1 1009.0 0.0
04/02:00pm 28.0 22.1 11.1 35 9.7 S 33 52 18 28 1010.5 1009.4 0.0
04/01:30pm 26.4 20.3 10.5 37 9.0 S 33 52 18 28 1011.0 1009.9 0.0
04/01:25pm 27.3 21.5 10.9 36 9.4 S 32 52 17 28 1010.9 1009.8 0.0
04/01:00pm 27.0 21.8 10.2 35 9.5 S 28 43 15 23 1011.4 1010.4 0.0
04/12:30pm 25.5 19.3 9.3 36 8.9 S 32 43 17 23 1011.6 1010.6 0.0
04/12:14pm 26.2 20.2 10.0 36 9.1 S 32 52 17 28 1011.7 1010.7 0.0
04/12:00pm 25.4 19.3 9.7 37 8.7 S 32 43 17 23 1011.8 1010.8 0.0
04/11:30am 24.2 17.7 9.0 38 8.3 S 33 46 18 25 1011.9 1010.9 0.0
04/11:00am 23.9 16.5 8.3 37 8.4 S 37 46 20 25 1011.9 1010.9 0.0
04/10:30am 22.7 15.6 8.0 39 7.8 SSW 35 46 19 25 1011.8 1010.8 0.0
04/10:00am 22.0 15.3 8.2 41 7.3 S 33 44 18 24 1011.9 1010.9 0.0
04/09:30am 21.7 13.8 7.9 41 7.2 S 39 50 21 27 1012.0 1011.0 0.0
04/09:00am 20.6 12.3 7.6 43 6.7 S 41 48 22 26 1011.8 1010.8 0.0
04/08:30am 20.1 11.0 6.8 42 6.8 S 44 56 24 30 1011.7 1010.7 0.0
04/08:00am 20.1 12.1 7.5 44 6.5 S 39 57 21 31 1011.4 1010.4 0.0
04/07:58am 20.1 12.5 7.5 44 6.5 S 37 57 20 31 1011.4 1010.4 0.0
04/07:30am 20.1 13.6 8.8 48 6.0 S 33 46 18 25 1011.3 1010.3 0.0
04/07:00am 20.3 14.9 9.5 50 5.8 S 28 37 15 20 1011.2 1010.2 0.0
04/06:30am 20.8 15.3 9.1 47 6.2 S 28 35 15 19 1010.7 1009.6 0.0
04/06:00am 21.2 16.1 9.1 46 6.5 S 26 33 14 18 1010.3 1009.2 0.0
04/05:30am 21.6 17.0 9.5 46 6.5 S 24 32 13 17 1010.1 1009.0 0.0
04/05:00am 22.0 17.4 9.5 45 6.8 S 24 33 13 18 1009.7 1008.7 0.0
04/04:30am 22.4 17.8 9.6 44 7.0 S 24 32 13 17 1009.4 1008.4 0.0
04/04:00am 22.8 17.9 9.9 44 7.1 S 26 37 14 20 1009.2 1008.2 0.0
04/03:30am 23.1 18.3 10.2 44 7.1 S 26 33 14 18 1009.0 1008.0 0.0
04/03:00am 23.5 17.9 10.2 43 7.4 S 30 43 16 23 1008.8 1007.8 0.0
04/02:30am 24.0 18.2 10.7 43 7.4 S 32 44 17 24 1008.8 1007.8 0.0
04/02:00am 24.4 18.7 11.0 43 7.6 S 32 44 17 24 1008.9 1007.9 0.0
04/01:30am 24.8 19.0 11.4 43 7.6 SSE 33 46 18 25 1008.9 1007.9 0.0
04/01:00am 25.1 18.9 11.3 42 7.9 SSE 35 48 19 26 1008.9 1007.9 0.0
04/12:30am 25.6 20.0 11.4 41 8.1 S 32 43 17 23 1008.8 1007.8 0.0
04/12:00am 26.1 21.3 11.8 41 8.2 S 28 37 15 20 1008.9 1007.9 0.0
 
Date/Time
EDT
Temp
°C
App
Temp
°C
Dew
Point
Rel
Hum
%
Delta-T
°C
Wind Press
QNH
hPa
Press
MSL
hPa
Rain
since 9 am
mm
Dir
 
Spd
km/h
Gust
km/h
Spd
kts
Gust
kts
03/11:30pm 26.5 21.2 11.4 39 8.6 S 30 41 16 22 1009.1 1008.1 0.0
03/11:00pm 26.8 22.7 11.3 38 8.9 S 24 33 13 18 1009.2 1008.2 0.0
03/10:30pm 27.2 22.8 11.7 38 9.0 S 26 33 14 18 1009.1 1008.1 0.0
03/10:00pm 27.4 22.1 11.4 37 9.2 SSW 30 37 16 20 1008.7 1007.7 0.0
03/09:30pm 27.7 22.5 11.7 37 9.3 SSW 30 35 16 19 1008.3 1007.3 0.0
03/09:00pm 28.2 22.5 11.7 36 9.6 SSW 33 41 18 22 1008.1 1007.1 0.0
03/08:30pm 28.6 22.8 11.6 34 9.9 SSW 33 43 18 23 1007.9 1006.9 0.0

Other Formats:

Comma delimited format used in spreadsheet applications
http://www.bom.gov.au/fwo/IDN60801/IDN60801.95699.axf

JavaScript Object Notation format (JSON) in row-major order
http://www.bom.gov.au/fwo/IDN60801/IDN60801.95699.json